createdAt,value
2018-04-17T00:00:44.041Z,73.45
2018-04-17T00:01:44.034Z,73.17
2018-04-17T00:02:44.033Z,73.26
2018-04-17T00:03:44.028Z,73.11
2018-04-17T00:04:44.025Z,73.45
2018-04-17T00:05:44.022Z,73.83
2018-04-17T00:06:44.024Z,73.58
2018-04-17T00:07:44.021Z,73.49
2018-04-17T00:08:44.013Z,73.68
2018-04-17T00:09:44.015Z,73.68
2018-04-17T00:10:44.010Z,73.68
2018-04-17T00:11:44.005Z,73.77
2018-04-17T00:12:43.999Z,73.77
2018-04-17T00:13:43.994Z,73.49
2018-04-17T00:14:43.996Z,73.55
2018-04-17T00:15:43.992Z,73.77
2018-04-17T00:16:43.985Z,73.74
2018-04-17T00:17:43.984Z,73.58
2018-04-17T00:18:43.980Z,73.45
2018-04-17T00:19:43.982Z,73.74
2018-04-17T00:20:43.977Z,73.93
2018-04-17T00:21:43.971Z,73.65
2018-04-17T00:22:43.975Z,73.74
2018-04-17T00:23:43.966Z,73.65
2018-04-17T00:24:43.959Z,73.17
2018-04-17T00:25:43.961Z,73.74
2018-04-17T00:26:43.957Z,73.65
2018-04-17T00:27:43.952Z,73.65
2018-04-17T00:28:43.954Z,73.17
2018-04-17T00:29:43.945Z,73.65
2018-04-17T00:30:43.947Z,73.36
2018-04-17T00:31:43.940Z,73.83
2018-04-17T00:32:43.934Z,73.65
2018-04-17T00:33:43.933Z,73.74
2018-04-17T00:34:43.928Z,73.65
2018-04-17T00:35:43.925Z,73.17
2018-04-17T00:36:43.925Z,73.65
2018-04-17T00:37:43.920Z,73.65
2018-04-17T00:38:43.912Z,73.83
2018-04-17T00:39:43.912Z,73.45
2018-04-17T00:40:43.906Z,73.65
2018-04-17T00:41:43.907Z,73.65
2018-04-17T00:42:43.904Z,73.55
2018-04-17T00:43:43.900Z,73.65
2018-04-17T00:44:43.895Z,73.17
2018-04-17T00:45:43.893Z,73.45
2018-04-17T00:46:43.890Z,73.65
2018-04-17T00:47:43.887Z,73.74
2018-04-17T00:48:43.883Z,73.65
2018-04-17T00:49:43.882Z,73.65
2018-04-17T00:50:43.882Z,73.41
2018-04-17T00:51:43.873Z,73.41
2018-04-17T00:52:43.871Z,73.26
2018-04-17T00:53:43.866Z,73.55
2018-04-17T00:54:43.862Z,73.70
2018-04-17T00:55:43.862Z,73.61
2018-04-17T00:56:43.886Z,73.41
2018-04-17T00:57:43.853Z,73.32
2018-04-17T00:58:43.857Z,73.41
2018-04-17T00:59:43.846Z,73.80
2018-04-17T01:00:43.846Z,73.41
2018-04-17T01:01:43.839Z,73.51
2018-04-17T01:02:43.836Z,73.61
2018-04-17T01:03:43.834Z,73.41
2018-04-17T01:04:43.826Z,73.80
2018-04-17T01:05:43.830Z,73.61
2018-04-17T01:06:43.824Z,73.51
2018-04-17T01:07:43.824Z,73.61
2018-04-17T01:08:43.818Z,73.80
2018-04-17T01:09:43.815Z,73.70
2018-04-17T01:10:43.809Z,73.32
2018-04-17T01:11:43.807Z,73.70
2018-04-17T01:12:43.804Z,73.80
2018-04-17T01:13:43.799Z,73.22
2018-04-17T01:14:43.796Z,73.41
2018-04-17T01:15:43.794Z,73.70
2018-04-17T01:16:43.794Z,73.51
2018-04-17T01:17:43.790Z,73.22
2018-04-17T01:18:43.781Z,73.61
2018-04-17T01:19:43.781Z,73.61
2018-04-17T01:20:43.777Z,73.41
2018-04-17T01:21:43.773Z,73.80
2018-04-17T01:22:43.769Z,73.61
2018-04-17T01:23:43.765Z,73.70
2018-04-17T01:24:43.763Z,73.70
2018-04-17T01:25:43.759Z,73.80
2018-04-17T01:26:43.754Z,73.51
2018-04-17T01:27:43.751Z,73.70
2018-04-17T01:28:43.768Z,73.80
2018-04-17T01:29:43.745Z,73.51
2018-04-17T01:30:43.742Z,73.61
2018-04-17T01:31:43.739Z,73.70
2018-04-17T01:32:43.733Z,73.41
2018-04-17T01:33:43.730Z,73.70
2018-04-17T01:34:43.735Z,73.80
2018-04-17T01:35:43.725Z,73.32
2018-04-17T01:36:43.718Z,73.66
2018-04-17T01:37:43.721Z,73.95
2018-04-17T01:38:43.716Z,74.04
2018-04-17T01:39:43.708Z,73.76
2018-04-17T01:40:43.703Z,73.76
2018-04-17T01:41:43.699Z,74.14
2018-04-17T01:42:43.698Z,73.76
2018-04-17T01:43:43.693Z,73.76
2018-04-17T01:44:43.691Z,74.43
2018-04-17T01:45:43.689Z,73.76
2018-04-17T01:46:43.682Z,74.24
2018-04-17T01:47:43.678Z,74.14
2018-04-17T01:48:43.677Z,74.14
2018-04-17T01:49:43.669Z,74.33
2018-04-17T01:50:43.667Z,74.14
2018-04-17T01:51:43.665Z,74.24
2018-04-17T01:52:43.659Z,74.43
2018-04-17T01:53:43.662Z,74.14
2018-04-17T01:54:43.652Z,74.33
2018-04-17T01:55:43.656Z,74.04
2018-04-17T01:56:43.650Z,74.33
2018-04-17T01:57:43.645Z,74.33
2018-04-17T01:58:43.641Z,74.43
2018-04-17T01:59:43.636Z,74.14
2018-04-17T02:00:43.644Z,74.10
2018-04-17T02:01:43.631Z,74.39
2018-04-17T02:02:43.626Z,74.20
2018-04-17T02:03:43.626Z,74.43
2018-04-17T02:04:43.621Z,73.66
2018-04-17T02:05:43.617Z,74.24
2018-04-17T02:06:43.612Z,74.20
2018-04-17T02:07:43.609Z,74.24
2018-04-17T02:08:43.607Z,74.29
2018-04-17T02:09:43.599Z,74.24
2018-04-17T02:10:43.599Z,74.33
2018-04-17T02:11:43.593Z,74.20
2018-04-17T02:12:43.589Z,74.90
2018-04-17T02:13:43.587Z,74.24
2018-04-17T02:14:43.581Z,74.39
2018-04-17T02:15:43.577Z,74.20
2018-04-17T02:16:43.573Z,74.58
2018-04-17T02:17:43.570Z,74.87
2018-04-17T02:18:43.567Z,74.87
2018-04-17T02:19:43.566Z,74.67
2018-04-17T02:20:43.555Z,74.10
2018-04-17T02:21:43.557Z,74.29
2018-04-17T02:22:43.551Z,74.77
2018-04-17T02:23:43.549Z,75.05
2018-04-17T02:24:43.543Z,74.39
2018-04-17T02:25:43.539Z,74.10
2018-04-17T02:26:43.537Z,74.29
2018-04-17T02:27:43.533Z,74.20
2018-04-17T02:28:43.527Z,74.96
2018-04-17T02:29:43.528Z,74.20
2018-04-17T02:30:43.520Z,75.15
2018-04-17T02:31:43.518Z,74.48
2018-04-17T02:32:43.513Z,75.05
2018-04-17T02:33:43.509Z,74.87
2018-04-17T02:34:43.510Z,75.05
2018-04-17T02:35:43.507Z,74.96
2018-04-17T02:36:43.498Z,75.05
2018-04-17T02:37:43.494Z,74.20
2018-04-17T02:38:43.488Z,75.05
2018-04-17T02:39:43.486Z,74.10
2018-04-17T02:40:43.486Z,74.20
2018-04-17T02:41:43.480Z,74.73
2018-04-17T02:42:43.476Z,74.63
2018-04-17T02:43:43.475Z,74.73
2018-04-17T02:44:43.467Z,75.21
2018-04-17T02:45:43.461Z,75.02
2018-04-17T02:46:43.462Z,75.40
2018-04-17T02:47:43.456Z,75.21
2018-04-17T02:48:43.451Z,75.11
2018-04-17T02:49:43.447Z,75.30
2018-04-17T02:50:43.443Z,75.30
2018-04-17T02:51:43.437Z,75.11
2018-04-17T02:52:43.434Z,75.21
2018-04-17T02:53:43.430Z,75.02
2018-04-17T02:54:43.427Z,75.30
2018-04-17T02:55:43.421Z,75.21
2018-04-17T02:56:43.414Z,75.21
2018-04-17T02:57:43.407Z,75.02
2018-04-17T02:58:43.406Z,75.30
2018-04-17T02:59:43.404Z,75.40
2018-04-17T03:00:43.399Z,75.02
2018-04-17T03:01:43.392Z,75.11
2018-04-17T03:02:43.390Z,75.02
2018-04-17T03:03:43.385Z,74.44
2018-04-17T03:04:43.380Z,74.82
2018-04-17T03:05:43.374Z,74.82
2018-04-17T03:06:43.371Z,74.44
2018-04-17T03:07:43.367Z,74.54
2018-04-17T03:08:43.358Z,74.63
2018-04-17T03:09:43.359Z,74.54
2018-04-17T03:10:43.354Z,74.73
2018-04-17T03:11:43.349Z,74.73
2018-04-17T03:12:43.348Z,74.73
2018-04-17T03:13:43.344Z,74.73
2018-04-17T03:14:43.339Z,74.73
2018-04-17T03:15:43.332Z,74.63
2018-04-17T03:16:43.330Z,74.63
2018-04-17T03:17:43.324Z,74.63
2018-04-17T03:18:43.324Z,75.30
2018-04-17T03:19:43.320Z,75.02
2018-04-17T03:20:43.312Z,75.11
2018-04-17T03:21:43.307Z,75.11
2018-04-17T03:22:43.303Z,75.40
2018-04-17T03:23:43.303Z,75.30
2018-04-17T03:24:43.295Z,74.54
2018-04-17T03:25:43.288Z,74.92
2018-04-17T03:26:43.286Z,75.11
2018-04-17T03:27:43.313Z,75.11
2018-04-17T03:28:43.279Z,75.30
2018-04-17T03:29:43.278Z,75.30
2018-04-17T03:30:43.272Z,75.30
2018-04-17T03:31:43.265Z,74.92
2018-04-17T03:32:43.259Z,75.02
2018-04-17T03:33:43.257Z,75.02
2018-04-17T03:34:43.251Z,75.02
2018-04-17T03:35:43.247Z,75.02
2018-04-17T03:36:43.239Z,75.11
2018-04-17T03:37:43.238Z,75.02
2018-04-17T03:38:43.235Z,74.92
2018-04-17T03:39:43.232Z,75.11
2018-04-17T03:40:43.224Z,75.11
2018-04-17T03:41:43.219Z,75.11
2018-04-17T03:42:43.213Z,75.30
2018-04-17T03:43:43.211Z,75.11
2018-04-17T03:44:43.204Z,75.30
2018-04-17T03:45:43.201Z,75.49
2018-04-17T03:46:43.193Z,75.11
2018-04-17T03:47:43.193Z,76.25
2018-04-17T03:48:43.190Z,75.78
2018-04-17T03:49:43.185Z,76.25
2018-04-17T03:50:43.179Z,75.78
2018-04-17T03:51:43.172Z,76.25
2018-04-17T03:52:43.169Z,75.87
2018-04-17T03:53:43.164Z,75.11
2018-04-17T03:54:43.165Z,75.21
2018-04-17T03:55:43.155Z,75.40
2018-04-17T03:56:43.157Z,74.92
2018-04-17T03:57:43.147Z,75.49
2018-04-17T03:58:43.145Z,75.02
2018-04-17T03:59:43.139Z,75.21
2018-04-17T04:00:43.130Z,75.02
2018-04-17T04:01:43.129Z,75.11
2018-04-17T04:02:43.144Z,75.11
2018-04-17T04:03:43.117Z,75.02
2018-04-17T04:04:43.114Z,75.11
2018-04-17T04:05:43.115Z,75.02
2018-04-17T04:06:43.108Z,75.07
2018-04-17T04:07:43.105Z,75.26
2018-04-17T04:08:43.096Z,75.45
2018-04-17T04:09:43.094Z,75.07
2018-04-17T04:10:43.089Z,75.26
2018-04-17T04:11:43.089Z,75.26
2018-04-17T04:12:43.079Z,74.98
2018-04-17T04:13:43.075Z,75.45
2018-04-17T04:14:43.071Z,75.07
2018-04-17T04:15:43.065Z,75.64
2018-04-17T04:16:43.060Z,75.55
2018-04-17T04:17:43.052Z,75.93
2018-04-17T04:18:43.055Z,75.93
2018-04-17T04:19:43.045Z,75.84
2018-04-17T04:20:43.046Z,75.84
2018-04-17T04:21:43.037Z,75.93
2018-04-17T04:22:43.030Z,75.84
2018-04-17T04:23:43.027Z,75.93
2018-04-17T04:24:43.025Z,75.96
2018-04-17T04:25:43.020Z,76.06
2018-04-17T04:26:43.012Z,76.06
2018-04-17T04:27:43.009Z,75.96
2018-04-17T04:28:43.003Z,75.78
2018-04-17T04:29:42.996Z,75.68
2018-04-17T04:30:42.993Z,75.87
2018-04-17T04:31:42.989Z,75.11
2018-04-17T04:32:42.984Z,75.21
2018-04-17T04:33:42.980Z,75.21
2018-04-17T04:34:42.977Z,75.59
2018-04-17T04:35:42.971Z,75.11
2018-04-17T04:36:42.967Z,75.11
2018-04-17T04:37:42.965Z,75.11
2018-04-17T04:38:42.960Z,74.44
2018-04-17T04:39:42.956Z,74.73
2018-04-17T04:40:42.948Z,74.73
2018-04-17T04:41:42.943Z,74.87
2018-04-17T04:42:42.939Z,74.92
2018-04-17T04:43:42.937Z,75.30
2018-04-17T04:44:42.931Z,75.30
2018-04-17T04:45:42.927Z,75.11
2018-04-17T04:46:42.923Z,74.44
2018-04-17T04:47:42.922Z,74.44
2018-04-17T04:48:42.915Z,74.73
2018-04-17T04:49:42.913Z,75.30
2018-04-17T04:50:42.902Z,75.21
2018-04-17T04:51:42.903Z,75.02
2018-04-17T04:52:42.895Z,74.92
2018-04-17T04:53:42.897Z,75.40
2018-04-17T04:54:42.887Z,75.05
2018-04-17T04:55:42.881Z,75.49
2018-04-17T04:56:42.881Z,75.02
2018-04-17T04:57:42.941Z,75.15
2018-04-17T04:58:42.872Z,75.11
2018-04-17T04:59:42.874Z,75.05
2018-04-17T05:00:42.867Z,75.15
2018-04-17T05:01:42.860Z,74.96
2018-04-17T05:02:42.856Z,75.53
2018-04-17T05:03:42.859Z,75.62
2018-04-17T05:04:42.844Z,75.53
2018-04-17T05:05:42.842Z,75.28
2018-04-17T05:06:42.848Z,75.57
2018-04-17T05:07:42.834Z,75.85
2018-04-17T05:08:42.829Z,75.99
2018-04-17T05:09:42.828Z,77.61
2018-04-17T05:10:42.822Z,77.36
2018-04-17T05:11:42.816Z,78.54
2018-04-17T05:12:42.813Z,79.21
2018-04-17T05:13:42.809Z,80.11
2018-04-17T05:14:42.809Z,80.58
2018-04-17T05:15:42.799Z,82.34
2018-04-17T05:16:42.798Z,82.24
2018-04-17T05:17:42.793Z,83.67
2018-04-17T05:18:42.788Z,83.43
2018-04-17T05:19:42.790Z,84.00
2018-04-17T05:20:42.782Z,83.47
2018-04-17T05:21:42.778Z,84.52
2018-04-17T05:22:42.776Z,85.10
2018-04-17T05:23:42.769Z,85.24
2018-04-17T05:24:42.770Z,84.47
2018-04-17T05:25:42.765Z,85.52
2018-04-17T05:26:42.762Z,85.75
2018-04-17T05:27:42.759Z,84.80
2018-04-17T05:28:42.754Z,84.66
2018-04-17T05:29:42.750Z,84.56
2018-04-17T05:30:42.768Z,84.99
2018-04-17T05:31:42.747Z,85.47
2018-04-17T05:32:42.745Z,85.94
2018-04-17T05:33:42.744Z,85.51
2018-04-17T05:34:42.736Z,85.41
2018-04-17T05:35:42.735Z,86.08
2018-04-17T05:36:42.728Z,85.55
2018-04-17T05:37:42.733Z,85.17
2018-04-17T05:38:42.731Z,85.75
2018-04-17T05:39:42.742Z,86.04
2018-04-17T05:40:42.747Z,86.13
2018-04-17T05:41:42.731Z,86.27
2018-04-17T05:42:42.721Z,85.41
2018-04-17T05:43:42.716Z,85.50
2018-04-17T05:44:42.715Z,85.45
2018-04-17T05:45:42.710Z,85.74
2018-04-17T05:46:42.715Z,85.83
2018-04-17T05:47:42.716Z,86.25
2018-04-17T05:48:42.706Z,86.54
2018-04-17T05:49:42.704Z,86.83
2018-04-17T05:50:42.702Z,86.11
2018-04-17T05:51:42.706Z,87.21
2018-04-17T05:52:42.704Z,86.54
2018-04-17T05:53:42.699Z,86.07
2018-04-17T05:54:42.696Z,86.83
2018-04-17T05:55:42.710Z,87.79
2018-04-17T05:56:42.693Z,87.70
2018-04-17T05:57:42.693Z,87.60
2018-04-17T05:58:42.691Z,87.84
2018-04-17T05:59:42.692Z,87.07
2018-04-17T06:00:42.692Z,87.16
2018-04-17T06:01:42.689Z,86.58
2018-04-17T06:02:42.687Z,87.45
2018-04-17T06:03:42.687Z,87.98
2018-04-17T06:04:42.689Z,87.88
2018-04-17T06:05:42.691Z,88.26
2018-04-17T06:06:42.685Z,87.01
2018-04-17T06:07:42.685Z,87.78
2018-04-17T06:08:42.690Z,87.59
2018-04-17T06:09:42.682Z,86.54
2018-04-17T06:10:42.682Z,87.45
2018-04-17T06:11:42.681Z,86.93
2018-04-17T06:12:42.683Z,87.65
2018-04-17T06:13:42.738Z,86.55
2018-04-17T06:14:42.678Z,85.88
2018-04-17T06:15:42.683Z,86.65
2018-04-17T06:16:42.681Z,86.84
2018-04-17T06:17:42.681Z,87.23
2018-04-17T06:18:42.680Z,87.27
2018-04-17T06:19:42.681Z,87.55
2018-04-17T06:20:42.680Z,86.83
2018-04-17T06:21:42.687Z,88.56
2018-04-17T06:22:42.677Z,87.35
2018-04-17T06:23:42.688Z,88.11
2018-04-17T06:24:42.680Z,88.21
2018-04-17T06:25:42.679Z,88.02
2018-04-17T06:26:42.677Z,87.96
2018-04-17T06:27:42.681Z,87.92
2018-04-17T06:28:42.679Z,86.90
2018-04-17T06:29:42.676Z,86.71
2018-04-17T06:30:42.677Z,86.52
2018-04-17T06:31:42.681Z,86.96
2018-04-17T06:32:42.680Z,87.74
2018-04-17T06:33:42.681Z,87.74
2018-04-17T06:34:42.678Z,88.37
2018-04-17T06:35:42.684Z,87.74
2018-04-17T06:36:42.681Z,87.94
2018-04-17T06:37:42.682Z,88.13
2018-04-17T06:38:42.682Z,87.55
2018-04-17T06:39:42.687Z,88.46
2018-04-17T06:40:42.683Z,88.41
2018-04-17T06:41:42.702Z,88.70
2018-04-17T06:42:42.681Z,88.79
2018-04-17T06:43:42.684Z,88.22
2018-04-17T06:44:42.683Z,87.98
2018-04-17T06:45:42.685Z,88.80
2018-04-17T06:46:42.684Z,88.42
2018-04-17T06:47:42.760Z,88.61
2018-04-17T06:48:42.683Z,87.65
2018-04-17T06:49:42.691Z,89.13
2018-04-17T06:50:42.686Z,88.08
2018-04-17T06:51:42.688Z,89.37
2018-04-17T06:52:42.732Z,90.13
2018-04-17T06:53:42.688Z,88.97
2018-04-17T06:54:42.685Z,86.99
2018-04-17T06:55:42.687Z,85.93
2018-04-17T06:56:42.689Z,82.98
2018-04-17T06:57:42.683Z,79.43
2018-04-17T06:58:42.688Z,79.17
2018-04-17T06:59:42.691Z,76.51
2018-04-17T07:00:42.691Z,75.36
2018-04-17T07:01:42.911Z,72.85
2018-04-17T07:02:42.694Z,71.70
2018-04-17T07:03:42.692Z,72.75
2018-04-17T07:04:42.706Z,73.72
2018-04-17T07:05:42.699Z,73.43
2018-04-17T07:06:42.702Z,74.48
2018-04-17T07:07:42.702Z,78.67
2018-04-17T07:08:42.705Z,79.86
2018-04-17T07:09:42.713Z,78.21
2018-04-17T07:10:42.715Z,72.18
2018-04-17T07:11:42.731Z,72.27
2018-04-17T07:12:42.713Z,71.60
2018-04-17T07:13:42.716Z,73.58
2018-04-17T07:14:42.722Z,73.58
2018-04-17T07:15:42.724Z,71.31
2018-04-17T07:16:42.722Z,70.13
2018-04-17T07:17:42.725Z,67.46
2018-04-17T07:18:42.727Z,65.47
2018-04-17T07:19:42.731Z,63.60
2018-04-17T07:20:42.738Z,63.43
2018-04-17T07:21:42.739Z,62.18
2018-04-17T07:22:42.741Z,63.66
2018-04-17T07:23:42.798Z,61.92
2018-04-17T07:24:42.748Z,59.70
2018-04-17T07:25:42.743Z,59.34
2018-04-17T07:26:42.750Z,60.41
2018-04-17T07:27:43.040Z,61.34
2018-04-17T07:28:42.764Z,60.60
2018-04-17T07:29:42.762Z,58.37
2018-04-17T07:30:42.766Z,57.29
2018-04-17T07:31:42.763Z,57.57
2018-04-17T07:32:42.771Z,58.19
2018-04-17T07:33:42.779Z,57.32
2018-04-17T07:34:42.846Z,57.90
2018-04-17T07:35:42.782Z,57.87
2018-04-17T07:36:42.877Z,55.52
2018-04-17T07:37:43.051Z,56.26
2018-04-17T07:38:42.794Z,56.96
2018-04-17T07:39:42.799Z,56.63
2018-04-17T07:40:42.801Z,55.51
2018-04-17T07:41:42.807Z,53.28
2018-04-17T07:42:42.811Z,53.09
2018-04-17T07:43:42.813Z,54.17
2018-04-17T07:44:42.913Z,54.37
2018-04-17T07:45:42.821Z,52.67
2018-04-17T07:46:43.168Z,52.65
2018-04-17T07:47:42.835Z,54.55
2018-04-17T07:48:42.839Z,54.72
2018-04-17T07:49:42.840Z,56.46
2018-04-17T07:50:42.847Z,58.26
2018-04-17T07:51:42.893Z,58.49
2018-04-17T07:52:42.850Z,61.13
2018-04-17T07:53:42.858Z,61.68
2018-04-17T07:54:42.863Z,66.04
2018-04-17T07:55:42.890Z,68.66
2018-04-17T07:56:42.868Z,71.06
2018-04-17T07:57:42.927Z,73.91
2018-04-17T07:58:42.879Z,76.65
2018-04-17T07:59:43.031Z,79.30
2018-04-17T08:00:42.884Z,79.63
2018-04-17T08:01:42.890Z,82.85
2018-04-17T08:02:43.097Z,82.65
2018-04-17T08:03:42.892Z,78.72
2018-04-17T08:04:43.114Z,71.92
2018-04-17T08:05:42.982Z,72.49
2018-04-17T08:06:43.079Z,76.00
2018-04-17T08:07:42.990Z,76.86
2018-04-17T08:08:42.904Z,79.21
2018-04-17T08:09:43.038Z,80.93
2018-04-17T08:10:42.962Z,76.14
2018-04-17T08:11:42.909Z,71.92
2018-04-17T08:12:42.910Z,69.81
2018-04-17T08:13:42.911Z,69.71
2018-04-17T08:14:43.042Z,69.23
2018-04-17T08:15:42.927Z,68.72
2018-04-17T08:16:42.930Z,70.67
2018-04-17T08:17:42.913Z,70.48
2018-04-17T08:18:42.963Z,71.82
2018-04-17T08:19:42.919Z,69.58
2018-04-17T08:20:42.954Z,66.03
2018-04-17T08:21:43.187Z,66.61
2018-04-17T08:22:42.922Z,66.51
2018-04-17T08:23:42.924Z,66.42
2018-04-17T08:24:42.932Z,67.85
2018-04-17T08:25:43.171Z,66.71
2018-04-17T08:26:42.931Z,66.89
2018-04-17T08:27:43.177Z,66.71
2018-04-17T08:28:43.114Z,66.99
2018-04-17T08:29:42.931Z,67.18
2018-04-17T08:30:42.931Z,68.33
2018-04-17T08:31:43.237Z,69.77
2018-04-17T08:32:42.932Z,72.17
2018-04-17T08:33:42.931Z,72.20
2018-04-17T08:34:42.937Z,70.29
2018-04-17T08:35:43.062Z,69.68
2018-04-17T08:36:42.933Z,70.64
2018-04-17T08:37:42.941Z,69.77
2018-04-17T08:38:42.937Z,68.81
2018-04-17T08:39:42.935Z,69.01
2018-04-17T08:40:42.961Z,70.44
2018-04-17T08:41:42.940Z,70.73
2018-04-17T08:42:42.952Z,72.27
2018-04-17T08:43:42.945Z,71.02
2018-04-17T08:44:42.939Z,68.97
2018-04-17T08:45:42.952Z,69.68
2018-04-17T08:46:42.940Z,70.73
2018-04-17T08:47:42.943Z,71.21
2018-04-17T08:48:42.938Z,72.49
2018-04-17T08:49:42.940Z,71.78
2018-04-17T08:50:42.941Z,71.69
2018-04-17T08:51:42.942Z,72.17
2018-04-17T08:52:42.970Z,73.41
2018-04-17T08:53:42.942Z,72.74
2018-04-17T08:54:42.941Z,71.69
2018-04-17T08:55:42.943Z,72.64
2018-04-17T08:56:42.941Z,70.35
2018-04-17T08:57:42.943Z,68.72
2018-04-17T08:58:42.944Z,67.32
2018-04-17T08:59:42.986Z,65.30
2018-04-17T09:00:42.997Z,67.99
2018-04-17T09:01:42.952Z,65.91
2018-04-17T09:02:43.109Z,64.09
2018-04-17T09:03:43.239Z,65.72
2018-04-17T09:04:42.945Z,64.63
2018-04-17T09:05:42.948Z,64.53
2018-04-17T09:06:42.947Z,63.96
2018-04-17T09:07:42.963Z,65.01
2018-04-17T09:08:42.961Z,67.22
2018-04-17T09:09:42.947Z,68.18
2018-04-17T09:10:42.947Z,68.88
2018-04-17T09:11:42.962Z,67.54
2018-04-17T09:12:42.945Z,65.88
2018-04-17T09:13:42.946Z,65.91
2018-04-17T09:14:43.221Z,65.23
2018-04-17T09:15:42.950Z,65.72
2018-04-17T09:16:42.962Z,60.72
2018-04-17T09:17:43.068Z,59.19
2018-04-17T09:18:42.949Z,58.33
2018-04-17T09:19:42.976Z,58.30
2018-04-17T09:20:43.099Z,59.36
2018-04-17T09:21:42.953Z,59.45
2018-04-17T09:22:43.092Z,59.36
2018-04-17T09:23:43.069Z,59.55
2018-04-17T09:24:42.953Z,60.03
2018-04-17T09:25:42.952Z,59.93
2018-04-17T09:26:42.953Z,60.79
2018-04-17T09:27:42.954Z,60.03
2018-04-17T09:28:42.955Z,59.26
2018-04-17T09:29:42.962Z,59.74
2018-04-17T09:30:42.954Z,60.22
2018-04-17T09:31:43.040Z,59.64
2018-04-17T09:32:42.954Z,59.36
2018-04-17T09:33:42.990Z,60.41
2018-04-17T09:34:43.112Z,59.36
2018-04-17T09:35:42.956Z,60.41
2018-04-17T09:36:43.107Z,60.79
2018-04-17T09:37:42.959Z,59.93
2018-04-17T09:38:42.969Z,60.99
2018-04-17T09:39:42.992Z,60.41
2018-04-17T09:40:42.955Z,60.99
2018-04-17T09:41:42.958Z,60.50
2018-04-17T09:42:42.992Z,60.50
2018-04-17T09:43:42.967Z,60.70
2018-04-17T09:44:42.959Z,61.18
2018-04-17T09:45:43.004Z,60.89
2018-04-17T09:46:42.987Z,59.83
2018-04-17T09:47:43.096Z,59.26
2018-04-17T09:48:42.957Z,59.83
2018-04-17T09:49:42.963Z,60.70
2018-04-17T09:50:42.961Z,59.93
2018-04-17T09:51:42.961Z,60.79
2018-04-17T09:52:42.962Z,59.93
2018-04-17T09:53:42.963Z,60.03
2018-04-17T09:54:42.981Z,59.83
2018-04-17T09:55:43.088Z,59.16
2018-04-17T09:56:42.966Z,59.55
2018-04-17T09:57:42.963Z,59.45
2018-04-17T09:58:42.962Z,59.93
2018-04-17T09:59:42.968Z,60.15
2018-04-17T10:00:43.014Z,59.96
2018-04-17T10:01:42.995Z,59.58
2018-04-17T10:02:42.961Z,60.15
2018-04-17T10:03:42.970Z,59.29
2018-04-17T10:04:43.236Z,58.91
2018-04-17T10:05:42.967Z,59.58
2018-04-17T10:06:42.966Z,59.48
2018-04-17T10:07:42.971Z,60.15
2018-04-17T10:08:42.975Z,59.00
2018-04-17T10:09:42.969Z,58.04
2018-04-17T10:10:42.968Z,58.39
2018-04-17T10:11:42.966Z,59.06
2018-04-17T10:12:42.969Z,59.93
2018-04-17T10:13:42.970Z,60.72
2018-04-17T10:14:42.969Z,62.07
2018-04-17T10:15:42.971Z,63.16
2018-04-17T10:16:42.968Z,60.85
2018-04-17T10:17:42.970Z,60.08
2018-04-17T10:18:42.975Z,60.25
2018-04-17T10:19:42.970Z,59.77
2018-04-17T10:20:42.969Z,59.86
2018-04-17T10:21:42.973Z,60.72
2018-04-17T10:22:42.980Z,61.30
2018-04-17T10:23:42.976Z,61.30
2018-04-17T10:24:42.977Z,59.67
2018-04-17T10:25:42.974Z,60.72
2018-04-17T10:26:42.974Z,59.96
2018-04-17T10:27:42.978Z,61.30
2018-04-17T10:28:42.975Z,60.44
2018-04-17T10:29:42.986Z,61.02
2018-04-17T10:30:43.024Z,61.05
2018-04-17T10:31:42.977Z,61.24
2018-04-17T10:32:43.050Z,59.58
2018-04-17T10:33:42.975Z,58.62
2018-04-17T10:34:43.008Z,59.99
2018-04-17T10:35:42.983Z,60.75
2018-04-17T10:36:42.977Z,61.81
2018-04-17T10:37:42.979Z,62.68
2018-04-17T10:38:42.983Z,62.90
2018-04-17T10:39:43.039Z,61.52
2018-04-17T10:40:42.982Z,61.27
2018-04-17T10:41:42.980Z,59.92
2018-04-17T10:42:42.991Z,59.03
2018-04-17T10:43:42.984Z,59.70
2018-04-17T10:44:42.986Z,61.72
2018-04-17T10:45:42.989Z,61.52
2018-04-17T10:46:42.985Z,60.75
2018-04-17T10:47:42.988Z,61.24
2018-04-17T10:48:42.987Z,59.51
2018-04-17T10:49:42.988Z,59.80
2018-04-17T10:50:42.989Z,60.57
2018-04-17T10:51:42.996Z,59.99
2018-04-17T10:52:42.990Z,59.61
2018-04-17T10:53:43.219Z,60.75
2018-04-17T10:54:43.153Z,61.62
2018-04-17T10:55:43.019Z,60.66
2018-04-17T10:56:42.997Z,60.08
2018-04-17T10:57:43.132Z,60.11
2018-04-17T10:58:43.228Z,60.78
2018-04-17T10:59:43.021Z,60.60
2018-04-17T11:00:42.999Z,60.69
2018-04-17T11:01:43.000Z,59.92
2018-04-17T11:02:42.995Z,60.60
2018-04-17T11:03:42.999Z,60.21
2018-04-17T11:04:43.002Z,60.78
2018-04-17T11:05:43.002Z,62.07
2018-04-17T11:06:43.415Z,62.16
2018-04-17T11:07:43.007Z,61.78
2018-04-17T11:08:43.007Z,59.57
2018-04-17T11:09:43.007Z,56.78
2018-04-17T11:10:43.006Z,57.65
2018-04-17T11:11:43.006Z,57.84
2018-04-17T11:12:43.176Z,57.75
2018-04-17T11:13:43.011Z,57.65
2018-04-17T11:14:43.014Z,59.47
2018-04-17T11:15:43.035Z,58.51
2018-04-17T11:16:43.011Z,57.84
2018-04-17T11:17:43.272Z,57.84
2018-04-17T11:18:43.019Z,58.51
2018-04-17T11:19:43.314Z,58.70
2018-04-17T11:20:43.152Z,58.73
2018-04-17T11:21:43.020Z,57.58
2018-04-17T11:22:43.195Z,56.62
2018-04-17T11:23:43.025Z,54.69
2018-04-17T11:24:43.023Z,56.84
2018-04-17T11:25:43.030Z,54.43
2018-04-17T11:26:43.153Z,54.72
2018-04-17T11:27:43.029Z,52.42
2018-04-17T11:28:43.029Z,51.33
2018-04-17T11:29:43.035Z,52.20
2018-04-17T11:30:43.034Z,52.77
2018-04-17T11:31:43.064Z,52.26
2018-04-17T11:32:43.036Z,52.36
2018-04-17T11:33:43.173Z,52.84
2018-04-17T11:34:43.073Z,54.02
2018-04-17T11:35:43.066Z,55.24
2018-04-17T11:36:43.042Z,54.47
2018-04-17T11:37:43.047Z,55.24
2018-04-17T11:38:43.046Z,54.47
2018-04-17T11:39:43.049Z,54.47
2018-04-17T11:40:43.052Z,55.05
2018-04-17T11:41:43.050Z,53.32
2018-04-17T11:42:43.061Z,55.46
2018-04-17T11:43:43.051Z,55.46
2018-04-17T11:44:43.059Z,54.02
2018-04-17T11:45:43.058Z,54.19
2018-04-17T11:46:43.058Z,54.57
2018-04-17T11:47:43.063Z,54.99
2018-04-17T11:48:43.116Z,55.56
2018-04-17T11:49:43.064Z,56.04
2018-04-17T11:50:43.065Z,55.08
2018-04-17T11:51:43.066Z,55.46
2018-04-17T11:52:43.309Z,55.46
2018-04-17T11:53:43.070Z,55.85
2018-04-17T11:54:43.072Z,56.30
2018-04-17T11:55:43.071Z,55.63
2018-04-17T11:56:43.223Z,55.24
2018-04-17T11:57:43.094Z,56.01
2018-04-17T11:58:43.078Z,55.73
2018-04-17T11:59:43.081Z,55.44
2018-04-17T12:00:43.081Z,56.01
2018-04-17T12:01:43.081Z,55.82
2018-04-17T12:02:43.086Z,55.34
2018-04-17T12:03:43.091Z,55.53
2018-04-17T12:04:43.088Z,56.11
2018-04-17T12:05:43.088Z,55.91
2018-04-17T12:06:43.090Z,57.75
2018-04-17T12:07:43.092Z,58.32
2018-04-17T12:08:43.093Z,57.48
2018-04-17T12:09:43.094Z,56.71
2018-04-17T12:10:43.155Z,56.52
2018-04-17T12:11:43.178Z,56.14
2018-04-17T12:12:43.097Z,56.62
2018-04-17T12:13:43.222Z,55.56
2018-04-17T12:14:43.107Z,55.85
2018-04-17T12:15:43.104Z,55.18
2018-04-17T12:16:43.191Z,55.56
2018-04-17T12:17:43.106Z,55.85
2018-04-17T12:18:43.160Z,54.89
2018-04-17T12:19:43.279Z,55.94
2018-04-17T12:20:43.128Z,56.40
2018-04-17T12:21:43.112Z,56.21
2018-04-17T12:22:43.116Z,56.21
2018-04-17T12:23:43.256Z,56.98
2018-04-17T12:24:43.117Z,57.71
2018-04-17T12:25:43.118Z,56.76
2018-04-17T12:26:43.121Z,57.26
2018-04-17T12:27:43.123Z,56.68
2018-04-17T12:28:43.225Z,57.55
2018-04-17T12:29:43.126Z,56.59
2018-04-17T12:30:43.131Z,56.43
2018-04-17T12:31:43.131Z,57.20
2018-04-17T12:32:43.134Z,58.42
2018-04-17T12:33:43.259Z,58.32
2018-04-17T12:34:43.132Z,57.84
2018-04-17T12:35:43.396Z,57.75
2018-04-17T12:36:43.213Z,56.43
2018-04-17T12:37:43.146Z,55.46
2018-04-17T12:38:43.171Z,56.88
2018-04-17T12:39:43.141Z,57.29
2018-04-17T12:40:43.224Z,57.00
2018-04-17T12:41:43.142Z,56.49
2018-04-17T12:42:43.292Z,57.65
2018-04-17T12:43:43.147Z,57.45
2018-04-17T12:44:43.144Z,58.51
2018-04-17T12:45:43.174Z,57.71
2018-04-17T12:46:43.155Z,58.10
2018-04-17T12:47:43.160Z,57.71
2018-04-17T12:48:43.284Z,57.62
2018-04-17T12:49:43.156Z,57.23
2018-04-17T12:50:43.237Z,57.90
2018-04-17T12:51:43.165Z,57.75
2018-04-17T12:52:43.165Z,58.42